createdAt,value
2019-03-04T00:01:12.182Z,12.91
2019-03-04T00:03:53.092Z,12.99
2019-03-04T00:06:29.880Z,13.00
2019-03-04T00:09:16.474Z,13.00
2019-03-04T00:11:50.385Z,13.03
2019-03-04T00:14:25.867Z,13.06
2019-03-04T00:17:09.881Z,13.05
2019-03-04T00:19:51.514Z,13.01
2019-03-04T00:22:27.787Z,12.98
2019-03-04T00:25:08.798Z,12.74
2019-03-04T00:27:44.000Z,12.74
2019-03-04T00:30:27.115Z,12.63
2019-03-04T00:32:58.881Z,12.49
2019-03-04T00:35:36.279Z,12.38
2019-03-04T00:38:12.336Z,12.32
2019-03-04T00:40:49.325Z,12.28
2019-03-04T00:43:27.082Z,12.21
2019-03-04T00:46:01.874Z,12.18
2019-03-04T00:48:34.518Z,12.16
2019-03-04T00:51:07.447Z,12.20
2019-03-04T00:53:43.191Z,12.29
2019-03-04T00:56:22.767Z,12.30
2019-03-04T00:58:54.263Z,12.34
2019-03-04T01:01:36.390Z,12.36
2019-03-04T01:04:11.473Z,12.45
2019-03-04T01:06:50.157Z,12.51
2019-03-04T01:09:26.275Z,12.54
2019-03-04T01:12:07.583Z,12.57
2019-03-04T01:14:43.546Z,12.65
2019-03-04T01:17:19.203Z,12.69
2019-03-04T01:19:50.630Z,12.74
2019-03-04T01:22:24.217Z,12.85
2019-03-04T01:25:02.040Z,12.90
2019-03-04T01:27:58.829Z,12.90
2019-03-04T01:30:41.022Z,12.92
2019-03-04T01:33:22.557Z,12.94
2019-03-04T01:35:58.920Z,12.95
2019-03-04T01:38:41.855Z,12.96
2019-03-04T01:41:22.494Z,12.94
2019-03-04T01:44:09.985Z,13.01
2019-03-04T01:46:43.073Z,12.95
2019-03-04T01:49:22.735Z,12.87
2019-03-04T01:52:04.846Z,12.87
2019-03-04T01:54:44.382Z,12.90
2019-03-04T01:57:24.920Z,12.91
2019-03-04T02:00:16.057Z,12.97
2019-03-04T02:02:48.935Z,12.99
2019-03-04T02:05:21.112Z,12.98
2019-03-04T02:07:54.103Z,12.99
2019-03-04T02:10:24.726Z,12.96
2019-03-04T02:12:55.008Z,12.91
2019-03-04T02:15:25.687Z,12.82
2019-03-04T02:17:56.106Z,12.72
2019-03-04T02:20:26.359Z,12.65
2019-03-04T02:22:58.364Z,12.51
2019-03-04T02:26:19.984Z,12.35
2019-03-04T02:28:50.251Z,12.35
2019-03-04T02:31:20.535Z,12.47
2019-03-04T02:33:51.122Z,12.46
2019-03-04T02:36:21.490Z,12.41
2019-03-04T02:38:53.330Z,12.33
2019-03-04T02:41:34.226Z,12.32
2019-03-04T02:44:25.778Z,12.35
2019-03-04T02:46:35.047Z,12.33
2019-03-04T02:49:05.638Z,12.31
2019-03-04T02:51:36.016Z,12.22
2019-03-04T02:54:06.784Z,12.22
2019-03-04T02:56:49.157Z,12.29
2019-03-04T02:59:20.045Z,12.31
2019-03-04T03:01:50.357Z,12.27
2019-03-04T03:04:22.234Z,12.24
2019-03-04T03:06:52.540Z,12.19
2019-03-04T03:09:24.688Z,12.10
2019-03-04T03:11:58.246Z,12.10
2019-03-04T03:14:28.325Z,12.14
2019-03-04T03:16:58.717Z,12.09
2019-03-04T03:19:29.228Z,12.10
2019-03-04T03:24:37.096Z,12.09
2019-03-04T03:27:10.764Z,12.14
2019-03-04T03:30:02.044Z,12.18
2019-03-04T03:32:38.251Z,12.31
2019-03-04T03:35:10.594Z,12.35
2019-03-04T03:37:49.231Z,12.34
2019-03-04T03:40:16.242Z,12.45
2019-03-04T03:42:46.557Z,12.49
2019-03-04T03:45:17.609Z,12.67
2019-03-04T03:47:50.909Z,12.73
2019-03-04T03:50:21.443Z,12.81
2019-03-04T03:52:52.945Z,12.93
2019-03-04T03:55:24.721Z,13.17
2019-03-04T03:57:56.516Z,13.18
2019-03-04T04:00:26.979Z,13.15
2019-03-04T04:02:59.290Z,13.15
2019-03-04T04:05:29.630Z,13.08
2019-03-04T04:08:01.502Z,13.06
2019-03-04T04:10:35.885Z,12.96
2019-03-04T04:13:08.223Z,12.90
2019-03-04T04:15:38.557Z,12.91
2019-03-04T04:18:14.677Z,12.90
2019-03-04T04:20:43.903Z,12.88
2019-03-04T04:23:15.612Z,12.77
2019-03-04T04:25:49.294Z,12.81
2019-03-04T04:28:19.590Z,12.82
2019-03-04T04:30:49.990Z,12.83
2019-03-04T04:33:20.496Z,12.86
2019-03-04T04:35:51.087Z,12.93
2019-03-04T04:38:21.412Z,12.94
2019-03-04T04:40:51.975Z,13.00
2019-03-04T04:43:22.481Z,13.06
2019-03-04T04:45:53.067Z,13.10
2019-03-04T04:48:23.558Z,13.10
2019-03-04T04:50:54.015Z,13.24
2019-03-04T04:53:27.399Z,13.25
2019-03-04T04:55:57.807Z,13.25
2019-03-04T04:58:28.144Z,13.33
2019-03-04T05:01:01.783Z,13.36
2019-03-04T05:03:32.104Z,13.33
2019-03-04T05:06:02.487Z,13.24
2019-03-04T05:08:36.083Z,13.13
2019-03-04T05:11:06.651Z,13.02
2019-03-04T05:13:36.914Z,13.06
2019-03-04T05:16:07.441Z,13.08
2019-03-04T05:18:38.293Z,13.02
2019-03-04T05:21:08.679Z,12.98
2019-03-04T05:23:42.377Z,12.98
2019-03-04T05:26:12.869Z,12.85
2019-03-04T05:28:45.942Z,12.65
2019-03-04T05:31:16.606Z,12.73
2019-03-04T05:33:46.939Z,12.77
2019-03-04T05:36:19.797Z,12.85
2019-03-04T05:38:50.200Z,12.94
2019-03-04T05:41:21.731Z,13.02
2019-03-04T05:43:55.076Z,13.03
2019-03-04T05:46:27.091Z,13.03
2019-03-04T05:48:57.443Z,13.05
2019-03-04T05:51:29.578Z,12.86
2019-03-04T05:53:59.978Z,12.58
2019-03-04T05:56:30.351Z,12.34
2019-03-04T05:59:02.209Z,12.22
2019-03-04T06:01:35.487Z,12.09
2019-03-04T06:04:11.058Z,11.88
2019-03-04T06:06:49.093Z,9.70
2019-03-04T06:09:22.922Z,8.54
2019-03-04T06:11:54.638Z,8.06
2019-03-04T06:14:25.172Z,7.83
2019-03-04T06:17:23.447Z,7.83
2019-03-04T06:19:32.108Z,7.77
2019-03-04T06:22:03.241Z,7.70
2019-03-04T06:24:43.941Z,7.66
2019-03-04T06:27:11.531Z,7.51
2019-03-04T06:29:42.136Z,7.37
2019-03-04T06:32:13.206Z,7.28
2019-03-04T06:34:43.541Z,7.22
2019-03-04T06:37:16.030Z,7.08
2019-03-04T06:39:47.952Z,7.08
2019-03-04T06:42:19.114Z,7.07
2019-03-04T06:44:52.647Z,7.11
2019-03-04T06:47:26.433Z,7.10
2019-03-04T06:49:56.710Z,7.10
2019-03-04T06:52:29.539Z,7.12
2019-03-04T06:55:44.625Z,7.19
2019-03-04T06:58:17.892Z,7.32
2019-03-04T07:01:06.655Z,7.44
2019-03-04T07:03:43.210Z,7.48
2019-03-04T07:06:13.596Z,7.47
2019-03-04T07:09:17.935Z,7.68
2019-03-04T07:11:58.856Z,7.93
2019-03-04T07:14:32.542Z,7.93
2019-03-04T07:17:03.142Z,7.92
2019-03-04T07:19:38.544Z,7.86
2019-03-04T07:22:31.750Z,7.87
2019-03-04T07:25:02.882Z,7.90
2019-03-04T07:27:33.480Z,7.97
2019-03-04T07:30:19.784Z,8.12
2019-03-04T07:32:55.033Z,8.26
2019-03-04T07:35:25.509Z,8.62
2019-03-04T07:38:15.166Z,8.91
2019-03-04T07:40:54.400Z,9.44
2019-03-04T07:43:27.158Z,9.94
2019-03-04T07:45:57.514Z,9.87
2019-03-04T07:48:32.439Z,9.87
2019-03-04T07:51:11.077Z,9.75
2019-03-04T07:53:46.228Z,9.62
2019-03-04T07:56:14.081Z,9.51
2019-03-04T07:58:45.791Z,9.44
2019-03-04T08:01:16.452Z,9.45
2019-03-04T08:03:49.440Z,9.49
2019-03-04T08:06:20.135Z,9.49
2019-03-04T08:09:14.336Z,9.49
2019-03-04T08:12:43.842Z,9.49
2019-03-04T08:15:21.372Z,9.44
2019-03-04T08:17:50.320Z,9.31
2019-03-04T08:20:22.278Z,9.38
2019-03-04T08:22:54.380Z,9.58
2019-03-04T08:25:24.725Z,9.76
2019-03-04T08:28:09.058Z,10.28
2019-03-04T08:30:32.079Z,11.18
2019-03-04T08:33:02.641Z,13.67
2019-03-04T08:35:35.680Z,16.62
2019-03-04T08:38:13.981Z,18.10
2019-03-04T08:40:44.340Z,18.27
2019-03-04T08:43:17.009Z,18.49
2019-03-04T08:45:57.353Z,16.86
2019-03-04T08:48:29.604Z,17.52
2019-03-04T08:51:02.157Z,16.43
2019-03-04T08:53:37.468Z,18.51
2019-03-04T08:56:08.011Z,18.22
2019-03-04T08:58:40.249Z,15.60
2019-03-04T09:01:18.857Z,15.60
2019-03-04T09:03:49.430Z,15.43
2019-03-04T09:06:21.271Z,14.44
2019-03-04T09:08:53.182Z,13.56
2019-03-04T09:11:25.823Z,12.98
2019-03-04T09:13:56.389Z,12.56
2019-03-04T09:16:29.776Z,12.61
2019-03-04T09:19:00.509Z,12.29
2019-03-04T09:21:30.829Z,12.12
2019-03-04T09:24:01.401Z,12.29
2019-03-04T09:26:33.551Z,12.29
2019-03-04T09:29:04.303Z,12.09
2019-03-04T09:31:35.918Z,11.80
2019-03-04T09:34:11.971Z,11.37
2019-03-04T09:36:43.267Z,10.71
2019-03-04T09:39:19.563Z,10.15
2019-03-04T09:41:54.326Z,9.72
2019-03-04T09:44:24.989Z,9.34
2019-03-04T09:46:55.363Z,9.16
2019-03-04T09:49:30.565Z,9.00
2019-03-04T09:52:02.522Z,8.85
2019-03-04T09:54:34.343Z,8.76
2019-03-04T09:57:09.185Z,8.63
2019-03-04T09:59:39.547Z,8.63
2019-03-04T10:02:16.508Z,8.61
2019-03-04T10:05:26.008Z,8.72
2019-03-04T10:08:32.784Z,8.75
2019-03-04T10:11:24.975Z,8.82
2019-03-04T10:14:40.813Z,8.89
2019-03-04T10:17:23.166Z,8.92
2019-03-04T10:20:37.129Z,9.16
2019-03-04T10:23:15.915Z,9.67
2019-03-04T10:29:40.766Z,10.13
2019-03-04T10:32:47.721Z,10.13
2019-03-04T10:36:04.893Z,10.18
2019-03-04T10:39:05.168Z,10.28
2019-03-04T10:42:29.842Z,10.34
2019-03-04T10:45:39.941Z,10.57
2019-03-04T10:48:10.588Z,10.67
2019-03-04T10:50:43.424Z,10.36
2019-03-04T10:53:14.971Z,10.05
2019-03-04T10:55:45.262Z,9.66
2019-03-04T10:58:17.081Z,9.21
2019-03-04T11:00:47.337Z,8.79
2019-03-04T11:03:18.018Z,8.21
2019-03-04T11:05:52.684Z,7.66
2019-03-04T11:08:23.073Z,7.26
2019-03-04T11:10:53.537Z,6.95
2019-03-04T11:13:31.444Z,6.77
2019-03-04T11:16:01.325Z,6.80
2019-03-04T11:18:33.885Z,7.05
2019-03-04T11:21:11.843Z,7.60
2019-03-04T11:23:47.312Z,8.14
2019-03-04T11:26:20.250Z,8.62
2019-03-04T11:28:51.992Z,8.11
2019-03-04T11:31:24.215Z,7.65
2019-03-04T11:33:54.538Z,7.40
2019-03-04T11:36:28.620Z,7.22
2019-03-04T11:39:23.209Z,7.23
2019-03-04T11:41:55.002Z,7.41
2019-03-04T11:44:26.909Z,7.60
2019-03-04T11:47:12.035Z,7.82
2019-03-04T11:49:47.607Z,7.77
2019-03-04T11:52:19.679Z,7.87
2019-03-04T11:54:50.592Z,8.05
2019-03-04T11:57:24.534Z,8.18
2019-03-04T11:59:56.710Z,8.26
2019-03-04T12:02:38.579Z,8.29
2019-03-04T12:05:08.335Z,8.34
2019-03-04T12:07:43.459Z,8.30
2019-03-04T12:10:14.892Z,8.30
2019-03-04T12:12:48.860Z,8.54
2019-03-04T12:15:24.422Z,8.71
2019-03-04T12:17:54.937Z,9.13
2019-03-04T12:20:27.067Z,9.57
2019-03-04T12:22:57.437Z,9.57
2019-03-04T12:25:29.013Z,9.06
2019-03-04T12:27:59.381Z,8.66
2019-03-04T12:30:31.436Z,8.42
2019-03-04T12:33:01.771Z,8.38
2019-03-04T12:35:33.186Z,8.34
2019-03-04T12:38:03.818Z,8.55
2019-03-04T12:40:35.525Z,8.81
2019-03-04T12:43:06.266Z,8.81
2019-03-04T12:45:36.919Z,8.79
2019-03-04T12:48:09.298Z,8.66
2019-03-04T12:50:41.687Z,8.70
2019-03-04T12:53:12.084Z,8.80
2019-03-04T12:55:43.182Z,8.93
2019-03-04T12:58:15.813Z,8.90
2019-03-04T13:00:47.989Z,8.75
2019-03-04T13:03:23.367Z,8.57
2019-03-04T13:05:54.285Z,8.39
2019-03-04T13:08:24.714Z,8.35
2019-03-04T13:10:58.132Z,8.44
2019-03-04T13:13:29.512Z,8.51
2019-03-04T13:16:03.184Z,8.45
2019-03-04T13:18:33.768Z,8.33
2019-03-04T13:21:14.779Z,8.23
2019-03-04T13:23:41.648Z,8.20
2019-03-04T13:26:13.915Z,8.27
2019-03-04T13:28:45.699Z,8.29
2019-03-04T13:31:16.290Z,8.16
2019-03-04T13:33:47.248Z,8.26
2019-03-04T13:36:17.878Z,8.61
2019-03-04T13:38:48.299Z,8.93
2019-03-04T13:41:20.142Z,9.07
2019-03-04T13:43:52.121Z,9.11
2019-03-04T13:46:22.490Z,9.23
2019-03-04T13:48:57.463Z,9.24
2019-03-04T13:51:31.662Z,9.08
2019-03-04T13:54:02.350Z,9.10
2019-03-04T13:56:38.337Z,9.44
2019-03-04T13:59:13.772Z,10.04
2019-03-04T14:01:48.445Z,10.58
2019-03-04T14:04:20.466Z,10.92
2019-03-04T14:06:53.499Z,10.93
2019-03-04T14:09:23.991Z,10.95
2019-03-04T14:11:58.438Z,11.04
2019-03-04T14:14:30.496Z,11.21
2019-03-04T14:17:01.338Z,11.32
2019-03-04T14:19:33.506Z,11.10
2019-03-04T14:22:05.436Z,11.10
2019-03-04T14:24:36.026Z,11.03
2019-03-04T14:27:08.129Z,10.79
2019-03-04T14:29:40.305Z,10.67
2019-03-04T14:32:14.933Z,10.42
2019-03-04T14:34:51.112Z,10.25
2019-03-04T14:37:21.968Z,10.31
2019-03-04T14:39:52.514Z,10.65
2019-03-04T14:42:26.206Z,10.76
2019-03-04T14:45:03.541Z,10.75
2019-03-04T14:47:35.350Z,10.85
2019-03-04T14:50:16.512Z,10.81
2019-03-04T14:52:49.962Z,10.75
2019-03-04T14:55:20.867Z,10.51
2019-03-04T14:57:51.737Z,10.46
2019-03-04T15:00:29.131Z,10.50
2019-03-04T15:03:02.869Z,10.45
2019-03-04T15:05:35.745Z,10.58
2019-03-04T15:08:14.964Z,10.73
2019-03-04T15:10:45.506Z,10.78
2019-03-04T15:13:21.722Z,10.81
2019-03-04T15:16:01.155Z,10.81
2019-03-04T15:18:26.063Z,10.84
2019-03-04T15:21:02.369Z,10.73
2019-03-04T15:23:34.829Z,10.71
2019-03-04T15:26:06.803Z,10.73
2019-03-04T15:28:37.133Z,10.67
2019-03-04T15:31:10.306Z,10.64
2019-03-04T15:33:40.670Z,10.60
2019-03-04T15:36:13.835Z,10.52
2019-03-04T15:38:44.572Z,10.46
2019-03-04T15:41:15.630Z,10.36
2019-03-04T15:43:47.483Z,10.30
2019-03-04T15:46:19.433Z,10.28
2019-03-04T15:48:50.037Z,10.23
2019-03-04T15:51:23.907Z,10.12
2019-03-04T15:53:54.242Z,10.02
2019-03-04T15:56:26.406Z,9.96
2019-03-04T15:58:56.756Z,9.89
2019-03-04T16:01:29.612Z,9.76
2019-03-04T16:04:00.198Z,9.69
2019-03-04T16:06:34.468Z,9.65
2019-03-04T16:09:11.679Z,9.64
2019-03-04T16:11:42.633Z,9.61
2019-03-04T16:14:13.315Z,9.54
2019-03-04T16:16:44.875Z,9.48
2019-03-04T16:19:16.606Z,9.45
2019-03-04T16:21:47.847Z,9.40
2019-03-04T16:24:20.378Z,9.35
2019-03-04T16:26:52.392Z,9.32
2019-03-04T16:29:22.856Z,9.32
2019-03-04T16:31:53.399Z,9.29
2019-03-04T16:34:24.169Z,9.25
2019-03-04T16:36:56.607Z,9.18
2019-03-04T16:39:30.179Z,9.12
2019-03-04T16:42:00.834Z,9.05
2019-03-04T16:44:31.184Z,8.93
2019-03-04T16:47:08.097Z,8.85
2019-03-04T16:49:38.441Z,8.71
2019-03-04T16:52:09.662Z,8.59
2019-03-04T16:54:40.320Z,8.41
2019-03-04T16:57:14.366Z,8.24
2019-03-04T16:59:45.032Z,8.17
2019-03-04T17:02:19.343Z,8.00
2019-03-04T17:04:50.163Z,7.89
2019-03-04T17:07:20.491Z,7.76
2019-03-04T17:09:51.563Z,7.63
2019-03-04T17:12:21.856Z,7.66
2019-03-04T17:14:53.711Z,7.56
2019-03-04T17:17:26.060Z,7.51
2019-03-04T17:19:56.684Z,7.41
2019-03-04T17:22:28.459Z,7.32
2019-03-04T17:25:00.688Z,7.30
2019-03-04T17:27:31.068Z,7.24
2019-03-04T17:30:05.217Z,7.16
2019-03-04T17:32:38.181Z,7.17
2019-03-04T17:35:09.780Z,7.17
2019-03-04T17:37:40.253Z,7.10
2019-03-04T17:40:12.430Z,7.03
2019-03-04T17:42:43.037Z,6.97
2019-03-04T17:45:17.240Z,7.01
2019-03-04T17:47:47.989Z,7.00
2019-03-04T17:50:25.005Z,6.99
2019-03-04T17:52:55.595Z,6.99
2019-03-04T17:55:26.057Z,6.95
2019-03-04T17:57:58.280Z,6.97
2019-03-04T18:00:29.921Z,6.95
2019-03-04T18:03:02.914Z,6.91
2019-03-04T18:05:33.663Z,6.87
2019-03-04T18:08:04.655Z,6.87
2019-03-04T18:10:35.449Z,6.88
2019-03-04T18:13:07.802Z,6.85
2019-03-04T18:15:40.237Z,6.77
2019-03-04T18:18:13.646Z,6.70
2019-03-04T18:20:44.620Z,6.67
2019-03-04T18:23:16.325Z,6.62
2019-03-04T18:25:53.979Z,6.64
2019-03-04T18:29:02.786Z,6.67
2019-03-04T18:32:09.762Z,6.65
2019-03-04T18:35:18.393Z,6.65
2019-03-04T18:38:28.901Z,6.71
2019-03-04T18:41:40.388Z,6.62
2019-03-04T18:44:46.069Z,6.50
2019-03-04T18:48:06.741Z,6.45
2019-03-04T18:50:37.216Z,6.38
2019-03-04T18:53:09.982Z,6.34
2019-03-04T18:55:40.520Z,6.41
2019-03-04T18:58:12.684Z,6.29
2019-03-04T19:00:46.186Z,6.21
2019-03-04T19:03:16.827Z,6.10
2019-03-04T19:05:47.793Z,6.11
2019-03-04T19:08:18.402Z,6.14
2019-03-04T19:10:48.938Z,6.15
2019-03-04T19:13:19.837Z,6.19
2019-03-04T19:15:53.625Z,6.22
2019-03-04T19:18:23.927Z,6.25
2019-03-04T19:20:55.843Z,6.28
2019-03-04T19:23:26.646Z,6.22
2019-03-04T19:25:59.115Z,6.18
2019-03-04T19:28:32.631Z,6.11
2019-03-04T19:31:09.558Z,6.05
2019-03-04T19:33:38.685Z,6.07
2019-03-04T19:36:12.047Z,6.06
2019-03-04T19:38:43.528Z,6.02
2019-03-04T19:41:14.178Z,6.06
2019-03-04T19:43:48.156Z,6.03
2019-03-04T19:46:18.670Z,5.97
2019-03-04T19:48:51.420Z,5.95
2019-03-04T19:51:21.787Z,6.01
2019-03-04T19:53:54.987Z,6.08
2019-03-04T19:56:26.239Z,6.12
2019-03-04T19:58:57.160Z,6.10
2019-03-04T20:01:28.066Z,6.07
2019-03-04T20:03:58.746Z,6.06
2019-03-04T20:06:30.400Z,6.15
2019-03-04T20:09:06.940Z,6.21
2019-03-04T20:11:38.093Z,6.23
2019-03-04T20:14:12.454Z,6.27
2019-03-04T20:16:43.363Z,6.43
2019-03-04T20:19:18.964Z,6.62
2019-03-04T20:21:50.660Z,6.78
2019-03-04T20:24:22.271Z,6.85
2019-03-04T20:26:52.637Z,6.87
2019-03-04T20:29:37.859Z,7.08
2019-03-04T20:31:55.347Z,7.08
2019-03-04T20:34:25.804Z,7.17
2019-03-04T20:36:58.012Z,7.20
2019-03-04T20:39:28.806Z,7.28
2019-03-04T20:42:00.861Z,7.31
2019-03-04T20:44:31.264Z,7.38
2019-03-04T20:47:03.366Z,7.38
2019-03-04T20:49:33.703Z,7.37
2019-03-04T20:52:05.271Z,7.40
2019-03-04T20:54:37.987Z,7.40
2019-03-04T20:57:08.191Z,7.41
2019-03-04T20:59:38.725Z,7.47
2019-03-04T21:02:09.314Z,7.22
2019-03-04T21:04:59.001Z,7.03
2019-03-04T21:07:10.343Z,6.79
2019-03-04T21:09:42.216Z,6.48
2019-03-04T21:12:19.769Z,6.12
2019-03-04T21:14:51.753Z,5.89
2019-03-04T21:17:24.971Z,5.69
2019-03-04T21:19:56.007Z,5.54
2019-03-04T21:22:31.062Z,5.42
2019-03-04T21:25:01.548Z,5.30
2019-03-04T21:27:36.442Z,5.21
2019-03-04T21:31:08.802Z,5.15
2019-03-04T21:34:11.218Z,5.13
2019-03-04T21:37:02.366Z,5.08
2019-03-04T21:39:36.035Z,5.09
2019-03-04T21:42:26.592Z,5.13
2019-03-04T21:48:15.192Z,5.22
2019-03-04T21:51:09.321Z,5.25
2019-03-04T21:53:43.889Z,5.26
2019-03-04T21:56:38.730Z,5.29
2019-03-04T21:59:20.878Z,5.29
2019-03-04T22:02:28.566Z,5.36
2019-03-04T22:05:00.979Z,5.38
2019-03-04T22:07:42.783Z,5.43
2019-03-04T22:10:15.246Z,5.49
2019-03-04T22:12:50.885Z,5.51
2019-03-04T22:15:28.035Z,5.54
2019-03-04T22:18:00.167Z,5.57
2019-03-04T22:20:30.857Z,5.60
2019-03-04T22:23:04.557Z,5.61
2019-03-04T22:25:47.825Z,5.69
2019-03-04T22:28:23.908Z,5.69
2019-03-04T22:30:54.167Z,5.77
2019-03-04T22:33:28.533Z,5.83
2019-03-04T22:41:13.749Z,5.94
2019-03-04T22:43:47.087Z,5.96
2019-03-04T22:46:18.504Z,5.95
2019-03-04T22:48:48.851Z,6.00
2019-03-04T22:51:19.482Z,6.01
2019-03-04T22:53:50.883Z,6.01
2019-03-04T22:56:21.228Z,6.03
2019-03-04T22:58:51.991Z,6.10
2019-03-04T23:01:42.559Z,6.07
2019-03-04T23:04:37.271Z,6.08
2019-03-04T23:07:35.048Z,6.12
2019-03-04T23:10:30.417Z,6.20
2019-03-04T23:13:28.407Z,6.30
2019-03-04T23:16:00.719Z,6.44
2019-03-04T23:18:31.346Z,6.47
2019-03-04T23:21:01.999Z,6.47
2019-03-04T23:23:32.618Z,6.48
2019-03-04T23:26:02.956Z,6.46
2019-03-04T23:28:33.319Z,6.52
2019-03-04T23:31:03.636Z,6.47
2019-03-04T23:33:34.227Z,6.49
2019-03-04T23:36:04.547Z,6.55
2019-03-04T23:38:36.257Z,6.53
2019-03-04T23:41:06.515Z,6.55
2019-03-04T23:43:37.004Z,6.55
2019-03-04T23:46:07.288Z,6.63
2019-03-04T23:48:39.759Z,6.67
2019-03-04T23:51:10.361Z,6.66
2019-03-04T23:53:41.898Z,6.55
2019-03-04T23:56:12.847Z,6.38
2019-03-04T23:58:45.059Z,6.29
